createdAt,value
2023-06-29T00:00:26.781Z,16.99
2023-06-29T00:01:26.812Z,16.89
2023-06-29T00:02:26.832Z,16.91
2023-06-29T00:03:26.828Z,16.87
2023-06-29T00:04:26.764Z,16.84
2023-06-29T00:05:26.752Z,16.83
2023-06-29T00:06:26.747Z,16.81
2023-06-29T00:07:26.839Z,16.87
2023-06-29T00:08:26.729Z,16.72
2023-06-29T00:09:26.755Z,16.83
2023-06-29T00:10:26.739Z,16.86
2023-06-29T00:11:26.738Z,16.84
2023-06-29T00:12:26.723Z,16.81
2023-06-29T00:13:26.695Z,16.87
2023-06-29T00:14:26.683Z,16.76
2023-06-29T00:15:26.680Z,16.66
2023-06-29T00:16:26.726Z,16.68
2023-06-29T00:17:26.672Z,16.47
2023-06-29T00:18:26.655Z,16.56
2023-06-29T00:19:26.675Z,16.57
2023-06-29T00:20:26.646Z,16.64
2023-06-29T00:21:26.662Z,16.43
2023-06-29T00:22:26.640Z,16.54
2023-06-29T00:23:26.616Z,16.58
2023-06-29T00:24:26.612Z,16.71
2023-06-29T00:25:26.635Z,16.61
2023-06-29T00:26:26.630Z,16.69
2023-06-29T00:27:26.619Z,16.60
2023-06-29T00:28:26.612Z,16.51
2023-06-29T00:29:26.573Z,16.58
2023-06-29T00:30:26.597Z,16.60
2023-06-29T00:31:26.579Z,16.64
2023-06-29T00:32:26.604Z,16.60
2023-06-29T00:33:26.553Z,16.68
2023-06-29T00:34:26.547Z,16.71
2023-06-29T00:35:26.560Z,16.68
2023-06-29T00:36:26.529Z,16.61
2023-06-29T00:37:26.512Z,16.68
2023-06-29T00:38:26.514Z,16.72
2023-06-29T00:39:26.536Z,16.71
2023-06-29T00:40:26.516Z,16.75
2023-06-29T00:41:26.481Z,16.64
2023-06-29T00:42:26.470Z,16.65
2023-06-29T00:43:27.476Z,16.64
2023-06-29T00:44:26.494Z,16.56
2023-06-29T00:45:26.471Z,16.61
2023-06-29T00:46:26.453Z,16.66
2023-06-29T00:47:26.500Z,16.71
2023-06-29T00:48:26.425Z,16.78
2023-06-29T00:49:26.449Z,16.75
2023-06-29T00:50:26.415Z,16.71
2023-06-29T00:51:26.419Z,16.69
2023-06-29T00:52:26.400Z,16.74
2023-06-29T00:53:26.390Z,16.79
2023-06-29T00:54:26.410Z,16.76
2023-06-29T00:55:26.378Z,16.65
2023-06-29T00:56:26.369Z,16.58
2023-06-29T00:57:26.367Z,16.43
2023-06-29T00:58:26.357Z,16.54
2023-06-29T00:59:26.367Z,16.42
2023-06-29T01:00:26.337Z,16.43
2023-06-29T01:01:26.362Z,16.50
2023-06-29T01:02:26.420Z,16.50
2023-06-29T01:03:26.443Z,16.47
2023-06-29T01:04:26.331Z,16.32
2023-06-29T01:05:26.311Z,16.28
2023-06-29T01:06:26.303Z,16.21
2023-06-29T01:07:26.328Z,16.29
2023-06-29T01:08:26.318Z,16.24
2023-06-29T01:09:26.285Z,16.28
2023-06-29T01:10:26.277Z,16.23
2023-06-29T01:11:26.305Z,16.35
2023-06-29T01:12:26.267Z,16.24
2023-06-29T01:13:26.288Z,16.24
2023-06-29T01:14:26.282Z,16.24
2023-06-29T01:15:26.229Z,16.35
2023-06-29T01:16:26.298Z,16.31
2023-06-29T01:17:26.255Z,16.36
2023-06-29T01:18:26.229Z,16.35
2023-06-29T01:19:26.211Z,16.43
2023-06-29T01:20:27.270Z,16.42
2023-06-29T01:21:26.189Z,16.43
2023-06-29T01:22:26.284Z,16.47
2023-06-29T01:23:26.241Z,16.42
2023-06-29T01:24:26.173Z,16.42
2023-06-29T01:25:58.965Z,16.38
2023-06-29T01:26:26.151Z,16.36
2023-06-29T01:27:26.177Z,16.32
2023-06-29T01:28:26.130Z,16.24
2023-06-29T01:29:26.194Z,16.15
2023-06-29T01:30:26.117Z,16.10
2023-06-29T01:31:26.119Z,16.15
2023-06-29T01:32:26.128Z,16.09
2023-06-29T01:33:26.104Z,16.13
2023-06-29T01:34:26.087Z,16.08
2023-06-29T01:35:26.077Z,16.02
2023-06-29T01:36:26.093Z,15.95
2023-06-29T01:37:26.093Z,15.97
2023-06-29T01:38:26.049Z,15.94
2023-06-29T01:39:26.047Z,15.97
2023-06-29T01:40:26.034Z,15.91
2023-06-29T01:41:26.055Z,15.92
2023-06-29T01:42:26.051Z,15.84
2023-06-29T01:43:26.013Z,15.76
2023-06-29T01:44:26.001Z,15.67
2023-06-29T01:45:26.001Z,15.72
2023-06-29T01:46:26.069Z,15.79
2023-06-29T01:47:26.014Z,15.70
2023-06-29T01:48:25.972Z,15.61
2023-06-29T01:49:26.006Z,15.62
2023-06-29T01:50:25.983Z,15.57
2023-06-29T01:51:25.987Z,15.44
2023-06-29T01:52:25.939Z,15.58
2023-06-29T01:53:25.945Z,15.51
2023-06-29T01:54:25.928Z,15.55
2023-06-29T01:55:25.948Z,15.55
2023-06-29T01:56:25.907Z,15.57
2023-06-29T01:57:25.906Z,15.52
2023-06-29T01:58:25.902Z,15.55
2023-06-29T01:59:25.897Z,15.62
2023-06-29T02:00:25.906Z,15.64
2023-06-29T02:01:25.908Z,15.52
2023-06-29T02:02:25.957Z,15.57
2023-06-29T02:03:25.903Z,15.59
2023-06-29T02:04:25.874Z,15.62
2023-06-29T02:05:25.865Z,15.57
2023-06-29T02:06:25.830Z,15.44
2023-06-29T02:07:25.849Z,15.51
2023-06-29T02:08:25.879Z,15.43
2023-06-29T02:09:25.834Z,15.44
2023-06-29T02:10:25.801Z,15.33
2023-06-29T02:11:25.796Z,15.27
2023-06-29T02:12:25.795Z,15.37
2023-06-29T02:13:25.787Z,15.33
2023-06-29T02:14:25.805Z,15.31
2023-06-29T02:15:25.777Z,15.31
2023-06-29T02:16:25.862Z,15.25
2023-06-29T02:17:25.770Z,15.18
2023-06-29T02:18:25.771Z,15.09
2023-06-29T02:19:25.759Z,15.00
2023-06-29T02:20:25.728Z,14.97
2023-06-29T02:21:25.719Z,14.91
2023-06-29T02:22:25.717Z,14.85
2023-06-29T02:23:25.738Z,14.91
2023-06-29T02:24:25.699Z,14.94
2023-06-29T02:25:25.688Z,14.91
2023-06-29T02:26:25.679Z,14.89
2023-06-29T02:27:25.677Z,14.91
2023-06-29T02:28:25.686Z,14.92
2023-06-29T02:29:25.672Z,14.91
2023-06-29T02:30:25.663Z,14.88
2023-06-29T02:31:25.727Z,14.82
2023-06-29T02:32:25.711Z,14.91
2023-06-29T02:33:25.683Z,14.88
2023-06-29T02:34:25.615Z,14.79
2023-06-29T02:35:26.612Z,14.81
2023-06-29T02:36:25.602Z,14.73
2023-06-29T02:37:25.630Z,14.69
2023-06-29T02:38:25.594Z,14.68
2023-06-29T02:39:25.585Z,14.81
2023-06-29T02:40:25.581Z,14.68
2023-06-29T02:41:25.609Z,14.73
2023-06-29T02:42:25.605Z,14.68
2023-06-29T02:43:25.557Z,14.82
2023-06-29T02:44:25.551Z,14.69
2023-06-29T02:45:25.544Z,14.78
2023-06-29T02:46:25.599Z,14.81
2023-06-29T02:47:25.564Z,14.81
2023-06-29T02:48:25.527Z,14.79
2023-06-29T02:49:25.515Z,14.70
2023-06-29T02:50:25.541Z,14.73
2023-06-29T02:51:25.523Z,14.77
2023-06-29T02:52:25.490Z,14.73
2023-06-29T02:53:25.478Z,14.79
2023-06-29T02:54:25.472Z,14.77
2023-06-29T02:55:25.472Z,14.85
2023-06-29T02:56:25.486Z,14.81
2023-06-29T02:57:25.451Z,14.77
2023-06-29T02:58:25.440Z,14.77
2023-06-29T02:59:25.436Z,14.66
2023-06-29T03:00:25.474Z,14.62
2023-06-29T03:01:25.487Z,14.63
2023-06-29T03:02:25.448Z,14.70
2023-06-29T03:03:25.487Z,14.66
2023-06-29T03:04:25.425Z,14.63
2023-06-29T03:05:25.417Z,14.54
2023-06-29T03:06:25.383Z,14.50
2023-06-29T03:07:25.409Z,14.40
2023-06-29T03:08:25.385Z,14.48
2023-06-29T03:09:25.360Z,14.45
2023-06-29T03:10:25.443Z,14.51
2023-06-29T03:11:25.350Z,14.58
2023-06-29T03:12:25.347Z,14.59
2023-06-29T03:13:25.355Z,14.58
2023-06-29T03:14:25.427Z,14.51
2023-06-29T03:15:25.341Z,14.51
2023-06-29T03:16:25.369Z,14.45
2023-06-29T03:17:25.297Z,14.63
2023-06-29T03:18:25.295Z,14.48
2023-06-29T03:19:25.321Z,14.58
2023-06-29T03:20:25.289Z,14.43
2023-06-29T03:21:25.266Z,14.48
2023-06-29T03:22:25.268Z,14.43
2023-06-29T03:23:25.253Z,14.58
2023-06-29T03:24:25.273Z,14.48
2023-06-29T03:25:25.247Z,14.54
2023-06-29T03:26:25.227Z,14.54
2023-06-29T03:27:25.231Z,14.51
2023-06-29T03:28:25.241Z,14.54
2023-06-29T03:29:25.232Z,14.65
2023-06-29T03:30:25.202Z,14.69
2023-06-29T03:31:25.298Z,14.59
2023-06-29T03:32:25.243Z,14.48
2023-06-29T03:33:25.205Z,14.50
2023-06-29T03:34:25.171Z,14.65
2023-06-29T03:35:25.164Z,14.53
2023-06-29T03:36:25.169Z,14.43
2023-06-29T03:37:25.148Z,14.43
2023-06-29T03:38:25.178Z,14.36
2023-06-29T03:39:25.137Z,14.32
2023-06-29T03:40:25.128Z,14.41
2023-06-29T03:41:25.117Z,14.23
2023-06-29T03:42:25.134Z,14.22
2023-06-29T03:43:25.153Z,14.17
2023-06-29T03:44:25.113Z,14.23
2023-06-29T03:45:25.121Z,14.11
2023-06-29T03:46:25.093Z,14.14
2023-06-29T03:47:25.152Z,14.11
2023-06-29T03:48:25.147Z,13.97
2023-06-29T03:49:25.056Z,13.99
2023-06-29T03:50:25.054Z,14.04
2023-06-29T03:51:25.037Z,13.97
2023-06-29T03:52:26.058Z,14.07
2023-06-29T03:53:25.029Z,14.08
2023-06-29T03:54:25.030Z,14.23
2023-06-29T03:55:25.016Z,14.18
2023-06-29T03:56:25.029Z,14.22
2023-06-29T03:57:25.023Z,14.04
2023-06-29T03:58:24.994Z,14.03
2023-06-29T03:59:24.983Z,14.05
2023-06-29T04:00:25.848Z,13.93
2023-06-29T04:01:25.017Z,13.90
2023-06-29T04:02:25.061Z,13.92
2023-06-29T04:03:25.040Z,13.89
2023-06-29T04:04:24.955Z,13.79
2023-06-29T04:05:24.959Z,13.86
2023-06-29T04:06:24.961Z,13.96
2023-06-29T04:07:25.011Z,13.96
2023-06-29T04:08:24.928Z,13.99
2023-06-29T04:09:24.907Z,14.14
2023-06-29T04:10:24.938Z,14.47
2023-06-29T04:11:24.911Z,14.79
2023-06-29T04:12:24.900Z,15.04
2023-06-29T04:13:24.880Z,15.49
2023-06-29T04:14:24.885Z,15.77
2023-06-29T04:15:24.884Z,16.09
2023-06-29T04:16:24.896Z,16.60
2023-06-29T04:17:24.857Z,16.71
2023-06-29T04:18:24.843Z,17.12
2023-06-29T04:19:24.875Z,17.42
2023-06-29T04:20:24.907Z,17.82
2023-06-29T04:21:24.813Z,18.08
2023-06-29T04:22:24.803Z,18.34
2023-06-29T04:23:24.793Z,18.75
2023-06-29T04:24:24.837Z,19.07
2023-06-29T04:25:24.816Z,19.24
2023-06-29T04:26:24.787Z,19.49
2023-06-29T04:27:24.773Z,19.52
2023-06-29T04:28:24.764Z,19.77
2023-06-29T04:29:24.776Z,19.96
2023-06-29T04:30:24.765Z,19.99
2023-06-29T04:31:24.750Z,19.82
2023-06-29T04:32:24.806Z,19.52
2023-06-29T04:33:24.730Z,19.52
2023-06-29T04:34:24.743Z,19.81
2023-06-29T04:35:24.718Z,19.89
2023-06-29T04:36:24.700Z,19.91
2023-06-29T04:37:24.689Z,19.94
2023-06-29T04:38:24.742Z,20.21
2023-06-29T04:39:24.698Z,20.60
2023-06-29T04:40:24.677Z,20.93
2023-06-29T04:41:24.655Z,21.20
2023-06-29T04:42:24.656Z,21.32
2023-06-29T04:43:24.670Z,21.45
2023-06-29T04:44:24.637Z,21.77
2023-06-29T04:45:24.628Z,21.88
2023-06-29T04:46:24.644Z,22.00
2023-06-29T04:47:24.617Z,22.02
2023-06-29T04:48:24.633Z,21.77
2023-06-29T04:49:24.597Z,21.77
2023-06-29T04:50:24.591Z,21.95
2023-06-29T04:51:24.605Z,21.83
2023-06-29T04:52:24.602Z,21.91
2023-06-29T04:53:24.610Z,21.89
2023-06-29T04:54:24.572Z,21.99
2023-06-29T04:55:24.553Z,22.22
2023-06-29T04:56:24.543Z,22.35
2023-06-29T04:57:25.823Z,22.35
2023-06-29T04:58:24.541Z,22.32
2023-06-29T04:59:24.531Z,22.66
2023-06-29T05:00:24.518Z,22.84
2023-06-29T05:01:24.623Z,22.54
2023-06-29T05:02:24.550Z,22.20
2023-06-29T05:03:24.591Z,22.02
2023-06-29T05:04:24.487Z,22.07
2023-06-29T05:05:24.477Z,21.99
2023-06-29T05:06:24.470Z,22.04
2023-06-29T05:07:24.546Z,21.99
2023-06-29T05:08:24.456Z,21.67
2023-06-29T05:09:24.458Z,21.79
2023-06-29T05:10:24.468Z,21.67
2023-06-29T05:11:24.460Z,21.67
2023-06-29T05:12:24.475Z,21.55
2023-06-29T05:13:24.415Z,21.40
2023-06-29T05:14:24.421Z,21.20
2023-06-29T05:15:24.467Z,21.45
2023-06-29T05:16:24.550Z,21.70
2023-06-29T05:17:24.439Z,21.95
2023-06-29T05:18:24.414Z,22.10
2023-06-29T05:19:24.377Z,22.53
2023-06-29T05:20:24.363Z,22.83
2023-06-29T05:21:24.390Z,23.34
2023-06-29T05:22:24.379Z,23.65
2023-06-29T05:23:24.376Z,23.63
2023-06-29T05:24:24.334Z,23.66
2023-06-29T05:25:24.373Z,23.28
2023-06-29T05:26:24.354Z,23.63
2023-06-29T05:27:24.313Z,23.77
2023-06-29T05:28:24.314Z,23.87
2023-06-29T05:29:24.302Z,24.35
2023-06-29T05:30:24.323Z,24.32
2023-06-29T05:31:24.321Z,24.36
2023-06-29T05:32:24.292Z,24.57
2023-06-29T05:33:24.278Z,24.48
2023-06-29T05:34:24.274Z,24.36
2023-06-29T05:35:24.287Z,24.30
2023-06-29T05:36:24.265Z,24.23
2023-06-29T05:37:24.239Z,23.62
2023-06-29T05:38:24.256Z,23.98
2023-06-29T05:39:24.225Z,24.68
2023-06-29T05:40:24.250Z,24.91
2023-06-29T05:41:24.200Z,25.28
2023-06-29T05:42:24.195Z,25.48
2023-06-29T05:43:24.222Z,25.90
2023-06-29T05:44:24.183Z,25.53
2023-06-29T05:45:24.203Z,25.11
2023-06-29T05:46:24.198Z,24.92
2023-06-29T05:47:24.168Z,25.41
2023-06-29T05:48:24.151Z,25.95
2023-06-29T05:49:24.191Z,26.25
2023-06-29T05:50:24.175Z,26.37
2023-06-29T05:51:24.126Z,26.06
2023-06-29T05:52:24.128Z,25.81
2023-06-29T05:53:24.147Z,25.28
2023-06-29T05:54:24.142Z,25.21
2023-06-29T05:55:24.105Z,25.40
2023-06-29T05:56:24.108Z,25.51
2023-06-29T05:57:24.090Z,25.53
2023-06-29T05:58:24.108Z,25.60
2023-06-29T05:59:24.111Z,25.48
2023-06-29T06:00:24.069Z,24.96
2023-06-29T06:01:24.089Z,25.31
2023-06-29T06:02:24.074Z,25.35
2023-06-29T06:03:24.215Z,24.69
2023-06-29T06:04:24.066Z,24.35
2023-06-29T06:05:24.034Z,24.14
2023-06-29T06:06:24.025Z,23.88
2023-06-29T06:07:24.029Z,23.95
2023-06-29T06:08:24.040Z,23.88
2023-06-29T06:09:24.002Z,23.63
2023-06-29T06:10:23.993Z,23.65
2023-06-29T06:11:23.982Z,23.68
2023-06-29T06:12:24.015Z,23.76
2023-06-29T06:13:23.994Z,23.61
2023-06-29T06:14:23.968Z,23.48
2023-06-29T06:15:23.989Z,23.05
2023-06-29T06:16:23.993Z,23.09
2023-06-29T06:17:23.996Z,22.99
2023-06-29T06:18:23.936Z,23.00
2023-06-29T06:19:23.938Z,23.03
2023-06-29T06:20:23.944Z,22.83
2023-06-29T06:21:23.911Z,22.91
2023-06-29T06:22:23.935Z,22.96
2023-06-29T06:23:23.896Z,23.02
2023-06-29T06:24:23.892Z,22.90
2023-06-29T06:25:23.927Z,22.81
2023-06-29T06:26:23.907Z,22.75
2023-06-29T06:27:23.927Z,22.47
2023-06-29T06:28:23.932Z,22.29
2023-06-29T06:29:23.851Z,22.20
2023-06-29T06:30:23.844Z,22.15
2023-06-29T06:31:33.373Z,22.04
2023-06-29T06:32:25.856Z,22.02
2023-06-29T06:33:23.847Z,22.17
2023-06-29T06:34:23.815Z,22.10
2023-06-29T06:35:23.805Z,22.14
2023-06-29T06:36:23.831Z,22.33
2023-06-29T06:37:23.792Z,22.28
2023-06-29T06:38:25.836Z,22.13
2023-06-29T06:39:24.783Z,22.20
2023-06-29T06:40:23.776Z,22.17
2023-06-29T06:41:23.786Z,22.17
2023-06-29T06:42:23.752Z,22.33
2023-06-29T06:43:23.753Z,22.35
2023-06-29T06:44:23.748Z,22.11
2023-06-29T06:45:23.761Z,21.93
2023-06-29T06:46:23.786Z,21.80
2023-06-29T06:47:23.739Z,21.89
2023-06-29T06:48:23.711Z,22.08
2023-06-29T06:49:23.741Z,22.15
2023-06-29T06:50:23.745Z,22.18
2023-06-29T06:51:23.686Z,22.28
2023-06-29T06:52:23.682Z,22.44
2023-06-29T06:53:23.673Z,22.36
2023-06-29T06:54:23.669Z,22.47
2023-06-29T06:55:23.682Z,22.43
2023-06-29T06:56:23.691Z,22.63
2023-06-29T06:57:23.642Z,22.68
2023-06-29T06:58:23.627Z,22.75
2023-06-29T06:59:23.653Z,22.76
2023-06-29T07:00:23.652Z,22.51
2023-06-29T07:01:23.839Z,22.35
2023-06-29T07:02:23.702Z,22.18
2023-06-29T07:03:23.647Z,22.26
2023-06-29T07:04:23.644Z,22.32
2023-06-29T07:05:23.595Z,22.53
2023-06-29T07:06:23.580Z,22.76
2023-06-29T07:07:23.789Z,22.93
2023-06-29T07:08:23.570Z,23.10
2023-06-29T07:09:23.592Z,23.08
2023-06-29T07:10:23.550Z,23.20
2023-06-29T07:11:23.537Z,23.28
2023-06-29T07:12:23.534Z,23.15
2023-06-29T07:13:23.567Z,23.23
2023-06-29T07:14:23.585Z,23.28
2023-06-29T07:15:23.503Z,23.40
2023-06-29T07:16:23.537Z,23.59
2023-06-29T07:17:23.521Z,23.66
2023-06-29T07:18:23.531Z,23.68
2023-06-29T07:21:26.187Z,23.12
2023-06-29T07:24:24.444Z,23.68
2023-06-29T07:25:56.033Z,23.73
2023-06-29T07:26:23.426Z,23.74
2023-06-29T07:27:23.421Z,23.68
2023-06-29T07:28:23.466Z,23.39
2023-06-29T07:29:23.408Z,23.46
2023-06-29T07:30:23.420Z,23.39
2023-06-29T07:31:23.416Z,23.34
2023-06-29T07:32:23.465Z,23.47
2023-06-29T07:33:23.445Z,23.55
2023-06-29T07:34:23.364Z,23.69
2023-06-29T07:35:23.368Z,23.63
2023-06-29T07:36:23.349Z,23.68
2023-06-29T07:37:23.371Z,23.66
2023-06-29T07:38:23.338Z,23.59
2023-06-29T07:39:23.349Z,23.73
2023-06-29T07:40:23.377Z,23.71
2023-06-29T07:41:23.319Z,23.80
2023-06-29T07:42:38.076Z,23.87
2023-06-29T07:43:25.301Z,24.17
2023-06-29T07:44:23.290Z,24.23
2023-06-29T07:45:23.284Z,24.32
2023-06-29T07:46:23.302Z,24.26
2023-06-29T07:47:23.391Z,24.43
2023-06-29T07:48:23.429Z,24.50
2023-06-29T07:49:23.264Z,24.80
2023-06-29T07:50:23.352Z,24.91
2023-06-29T07:51:23.260Z,25.08
2023-06-29T07:52:23.223Z,25.17
2023-06-29T07:53:23.227Z,25.25
2023-06-29T07:54:23.212Z,25.28
2023-06-29T07:55:23.322Z,25.13
2023-06-29T07:56:23.550Z,24.92
2023-06-29T07:59:24.204Z,25.17
2023-06-29T08:00:23.268Z,25.16
2023-06-29T08:01:23.221Z,25.11
2023-06-29T08:02:23.199Z,25.13
2023-06-29T08:03:23.143Z,25.32
2023-06-29T08:07:24.199Z,25.36
2023-06-29T08:08:23.238Z,25.32
2023-06-29T08:09:23.105Z,25.11
2023-06-29T08:10:23.131Z,25.43
2023-06-29T08:11:23.157Z,25.69
2023-06-29T08:12:23.088Z,25.51
2023-06-29T08:13:23.074Z,25.50
2023-06-29T08:14:23.118Z,25.26
2023-06-29T08:15:23.084Z,25.25
2023-06-29T08:16:23.144Z,25.33
2023-06-29T08:17:23.067Z,25.53
2023-06-29T08:18:23.056Z,25.51
2023-06-29T08:19:23.109Z,25.54
2023-06-29T08:20:23.043Z,25.36
2023-06-29T08:21:23.066Z,25.62
2023-06-29T08:22:23.020Z,25.62
2023-06-29T08:23:23.013Z,25.70
2023-06-29T08:24:23.041Z,25.69
2023-06-29T08:25:22.987Z,25.75
2023-06-29T08:26:23.021Z,25.90
2023-06-29T08:27:22.973Z,25.90
2023-06-29T08:28:22.978Z,25.84
2023-06-29T08:29:23.982Z,25.59
2023-06-29T08:30:23.033Z,25.33
2023-06-29T08:31:22.988Z,25.69
2023-06-29T08:32:23.047Z,25.83
2023-06-29T08:33:23.085Z,25.85
2023-06-29T08:34:22.917Z,25.87
2023-06-29T08:35:22.912Z,25.88
2023-06-29T08:36:22.907Z,25.96
2023-06-29T08:37:22.891Z,26.00
2023-06-29T08:38:22.929Z,26.13
2023-06-29T08:39:22.938Z,26.19
2023-06-29T08:40:22.938Z,26.48
2023-06-29T08:41:22.867Z,26.44
2023-06-29T08:42:22.887Z,26.43
2023-06-29T08:43:22.888Z,26.41
2023-06-29T08:44:22.849Z,26.66
2023-06-29T08:45:22.838Z,26.75
2023-06-29T08:46:22.865Z,26.92
2023-06-29T08:47:22.909Z,26.92
2023-06-29T08:48:22.817Z,27.17
2023-06-29T08:49:22.810Z,27.33
2023-06-29T08:50:22.868Z,27.05
2023-06-29T08:51:22.788Z,27.08
2023-06-29T08:52:22.809Z,27.21
2023-06-29T08:53:22.846Z,27.33
2023-06-29T08:54:22.766Z,27.15
2023-06-29T08:55:22.758Z,27.02
2023-06-29T08:56:22.805Z,27.12
2023-06-29T08:57:22.772Z,27.14
2023-06-29T08:58:22.743Z,27.00
2023-06-29T08:59:22.736Z,26.83
2023-06-29T09:00:22.785Z,26.51
2023-06-29T09:01:22.805Z,26.23
2023-06-29T09:02:22.783Z,25.90
2023-06-29T09:03:22.849Z,25.88
2023-06-29T09:04:22.697Z,25.84
2023-06-29T09:05:22.694Z,25.85
2023-06-29T09:06:22.700Z,25.87
2023-06-29T09:07:22.693Z,25.91
2023-06-29T09:08:22.703Z,26.02
2023-06-29T09:09:22.656Z,25.85
2023-06-29T09:10:22.787Z,26.19
2023-06-29T09:11:22.670Z,26.62
2023-06-29T09:12:22.632Z,26.97
2023-06-29T09:13:22.620Z,27.18
2023-06-29T09:14:22.624Z,27.39
2023-06-29T09:15:22.816Z,27.27
2023-06-29T09:16:22.744Z,26.16
2023-06-29T09:17:22.620Z,25.07
2023-06-29T09:18:22.584Z,24.33
2023-06-29T09:19:22.583Z,24.61
2023-06-29T09:20:22.601Z,24.95
2023-06-29T09:21:22.568Z,25.59
2023-06-29T09:22:22.567Z,26.02
2023-06-29T09:23:22.557Z,26.56
2023-06-29T09:24:22.549Z,26.85
2023-06-29T09:26:23.556Z,27.27
2023-06-29T09:27:22.528Z,27.42
2023-06-29T09:28:22.512Z,27.55
2023-06-29T09:29:22.542Z,27.86
2023-06-29T09:30:22.532Z,27.86
2023-06-29T09:31:22.560Z,27.85
2023-06-29T09:32:22.515Z,27.89
2023-06-29T09:33:22.493Z,27.73
2023-06-29T09:34:22.533Z,27.70
2023-06-29T09:35:22.479Z,27.74
2023-06-29T09:36:22.471Z,27.48
2023-06-29T09:37:22.455Z,27.55
2023-06-29T09:38:22.453Z,27.68
2023-06-29T09:39:22.459Z,27.68
2023-06-29T09:40:22.425Z,27.87
2023-06-29T09:41:22.422Z,27.98
2023-06-29T09:42:22.451Z,28.08
2023-06-29T09:43:23.093Z,28.11
2023-06-29T09:44:22.432Z,28.19
2023-06-29T09:45:22.404Z,28.32
2023-06-29T09:46:22.425Z,27.93
2023-06-29T09:49:23.501Z,27.21
2023-06-29T09:50:22.518Z,27.21
2023-06-29T09:51:22.495Z,27.27
2023-06-29T09:52:22.422Z,27.20
2023-06-29T09:53:22.363Z,27.32
2023-06-29T09:54:22.347Z,27.51
2023-06-29T09:55:22.321Z,27.70
2023-06-29T09:56:23.007Z,27.83
2023-06-29T09:57:22.290Z,28.19
2023-06-29T09:58:22.320Z,28.48
2023-06-29T09:59:22.305Z,28.66
2023-06-29T10:00:22.286Z,28.66
2023-06-29T10:01:22.311Z,28.49
2023-06-29T10:02:22.380Z,28.32
2023-06-29T10:03:22.328Z,28.07
2023-06-29T10:04:22.266Z,28.00
2023-06-29T10:05:22.246Z,27.82
2023-06-29T10:06:22.258Z,27.95
2023-06-29T10:07:22.404Z,28.14
2023-06-29T10:08:22.269Z,28.05
2023-06-29T10:09:22.252Z,28.12
2023-06-29T10:10:22.218Z,28.05
2023-06-29T10:11:22.198Z,28.02
2023-06-29T10:12:22.248Z,27.74
2023-06-29T10:13:22.205Z,27.93
2023-06-29T10:14:22.190Z,28.35
2023-06-29T10:15:22.172Z,28.48
2023-06-29T10:16:22.186Z,28.10
2023-06-29T10:17:22.221Z,27.18
2023-06-29T10:18:22.168Z,27.58
2023-06-29T10:19:22.174Z,27.74
2023-06-29T10:20:22.138Z,27.85
2023-06-29T10:21:22.226Z,27.71
2023-06-29T10:22:22.157Z,27.87
2023-06-29T10:23:23.548Z,28.01
2023-06-29T10:24:22.109Z,28.29
2023-06-29T10:25:22.101Z,28.33
2023-06-29T10:26:22.125Z,28.47
2023-06-29T10:27:22.089Z,28.84
2023-06-29T10:28:22.083Z,28.82
2023-06-29T10:29:23.288Z,28.82
2023-06-29T10:30:22.065Z,28.94
2023-06-29T10:31:22.112Z,29.08
2023-06-29T10:32:22.057Z,29.14
2023-06-29T10:33:22.043Z,29.10
2023-06-29T10:34:22.034Z,28.97
2023-06-29T10:35:23.509Z,28.63
2023-06-29T10:36:22.130Z,28.30
2023-06-29T10:37:22.014Z,28.07
2023-06-29T10:38:22.005Z,27.75
2023-06-29T10:39:22.008Z,27.47
2023-06-29T10:40:22.044Z,27.33
2023-06-29T10:41:21.991Z,27.42
2023-06-29T10:42:21.974Z,27.37
2023-06-29T10:43:21.970Z,27.32
2023-06-29T10:44:21.957Z,27.52
2023-06-29T10:45:21.993Z,27.63
2023-06-29T10:46:21.996Z,27.63
2023-06-29T10:47:21.956Z,27.85
2023-06-29T10:48:38.483Z,27.83
2023-06-29T10:49:23.969Z,27.75
2023-06-29T10:50:21.948Z,27.67
2023-06-29T10:51:21.965Z,28.00
2023-06-29T10:52:21.903Z,27.96
2023-06-29T10:53:21.895Z,28.08
2023-06-29T10:54:21.935Z,28.26
2023-06-29T10:55:21.901Z,28.04
2023-06-29T10:56:21.872Z,27.92
2023-06-29T10:57:21.877Z,27.89
2023-06-29T10:58:21.867Z,27.78
2023-06-29T10:59:21.902Z,27.85
2023-06-29T11:00:21.858Z,27.80
2023-06-29T11:01:21.879Z,27.68
2023-06-29T11:02:21.853Z,27.52
2023-06-29T11:03:21.868Z,27.51
2023-06-29T11:04:21.983Z,27.58
2023-06-29T11:05:21.837Z,27.64
2023-06-29T11:06:33.486Z,27.48
2023-06-29T11:07:23.906Z,27.39
2023-06-29T11:08:21.840Z,27.25
2023-06-29T11:09:21.820Z,27.15
2023-06-29T11:10:21.793Z,26.77
2023-06-29T11:11:21.761Z,26.70
2023-06-29T11:12:21.757Z,26.81
2023-06-29T11:13:21.771Z,26.89
2023-06-29T11:14:21.742Z,26.92
2023-06-29T11:15:21.737Z,26.92
2023-06-29T11:16:21.774Z,27.17
2023-06-29T11:17:21.771Z,26.96
2023-06-29T11:18:21.744Z,27.15
2023-06-29T11:19:22.712Z,27.22
2023-06-29T11:20:21.701Z,27.15
2023-06-29T11:21:21.699Z,26.96
2023-06-29T11:22:21.726Z,26.95
2023-06-29T11:23:21.675Z,26.96
2023-06-29T11:24:21.678Z,27.02
2023-06-29T11:25:21.681Z,26.83
2023-06-29T11:26:21.675Z,26.55
2023-06-29T11:27:21.669Z,26.53
2023-06-29T11:28:21.643Z,26.48
2023-06-29T11:29:21.641Z,26.52
2023-06-29T11:30:21.628Z,26.58
2023-06-29T11:31:21.644Z,26.55
2023-06-29T11:32:21.706Z,26.53
2023-06-29T11:33:33.804Z,26.53
2023-06-29T11:34:23.593Z,26.47
2023-06-29T11:35:21.592Z,26.28
2023-06-29T11:36:21.655Z,26.05
2023-06-29T11:38:21.570Z,26.07
2023-06-29T11:39:22.603Z,26.18
2023-06-29T11:40:21.560Z,26.31
2023-06-29T11:41:21.570Z,26.31
2023-06-29T11:42:21.571Z,26.10
2023-06-29T11:44:22.533Z,26.02
2023-06-29T11:45:21.543Z,25.95
2023-06-29T11:46:21.579Z,25.91
2023-06-29T11:48:22.590Z,25.99
2023-06-29T11:49:22.963Z,26.15
2023-06-29T11:50:22.549Z,26.28
2023-06-29T11:51:21.500Z,26.47
2023-06-29T11:52:21.465Z,26.51
2023-06-29T11:53:21.466Z,26.51
2023-06-29T11:54:21.459Z,26.52
2023-06-29T11:55:23.666Z,26.55
2023-06-29T11:56:22.440Z,26.68
2023-06-29T11:57:21.430Z,26.78
2023-06-29T11:58:21.424Z,26.77
2023-06-29T11:59:21.447Z,26.90
2023-06-29T12:00:21.503Z,26.93
2023-06-29T12:01:22.723Z,27.10
2023-06-29T12:02:21.424Z,27.17
2023-06-29T12:03:21.440Z,27.45
2023-06-29T12:04:21.451Z,27.60
2023-06-29T12:05:21.413Z,27.68
2023-06-29T12:06:21.373Z,27.70
2023-06-29T12:07:21.419Z,27.80
2023-06-29T12:08:21.666Z,28.02
2023-06-29T12:09:21.401Z,28.22
2023-06-29T12:10:21.333Z,28.27
2023-06-29T12:11:22.936Z,28.48
2023-06-29T12:12:22.181Z,28.37
2023-06-29T12:13:21.338Z,28.39
2023-06-29T12:14:21.323Z,28.45
2023-06-29T12:15:21.296Z,28.32
2023-06-29T12:18:22.545Z,27.93
2023-06-29T12:19:21.541Z,27.95
2023-06-29T12:20:21.782Z,28.01
2023-06-29T12:21:21.476Z,28.12
2023-06-29T12:22:21.245Z,28.30
2023-06-29T12:23:21.255Z,28.70
2023-06-29T12:24:21.260Z,29.01
2023-06-29T12:25:21.237Z,28.96
2023-06-29T12:26:21.223Z,29.07
2023-06-29T12:27:21.247Z,29.05
2023-06-29T12:28:21.280Z,28.63
2023-06-29T12:29:21.278Z,28.54
2023-06-29T12:30:21.312Z,28.60
2023-06-29T12:31:21.297Z,28.69
2023-06-29T12:32:21.313Z,28.66
2023-06-29T12:33:21.210Z,28.39
2023-06-29T12:34:21.247Z,28.39
2023-06-29T12:35:21.156Z,28.33
2023-06-29T12:36:21.147Z,28.30
2023-06-29T12:37:21.171Z,28.32
2023-06-29T12:38:21.142Z,28.19
2023-06-29T12:39:21.127Z,28.10
2023-06-29T12:40:21.121Z,27.92
2023-06-29T12:41:21.170Z,27.82
2023-06-29T12:42:21.096Z,27.80
2023-06-29T12:43:21.104Z,27.82
2023-06-29T12:44:21.084Z,27.95
2023-06-29T12:45:21.093Z,27.82
2023-06-29T12:46:21.097Z,27.75
2023-06-29T12:47:21.103Z,27.59
2023-06-29T12:48:21.095Z,27.39
2023-06-29T12:49:21.056Z,27.33
2023-06-29T12:50:21.090Z,27.45
2023-06-29T12:51:21.065Z,27.49
2023-06-29T12:52:21.022Z,27.52
2023-06-29T12:53:21.035Z,27.55
2023-06-29T12:54:21.009Z,27.55
2023-06-29T12:55:21.046Z,27.48
2023-06-29T12:56:21.010Z,27.25
2023-06-29T12:57:21.007Z,27.33
2023-06-29T12:58:20.985Z,27.35
2023-06-29T12:59:20.980Z,27.36
2023-06-29T13:00:20.985Z,27.35
2023-06-29T13:01:21.006Z,27.05
2023-06-29T13:02:21.002Z,27.02
2023-06-29T13:03:21.162Z,27.08
2023-06-29T13:04:21.176Z,27.26
2023-06-29T13:05:20.962Z,27.36
2023-06-29T13:06:20.917Z,27.17
2023-06-29T13:07:21.986Z,27.17
2023-06-29T13:08:20.909Z,27.00
2023-06-29T13:09:20.937Z,27.08